Time;durP1;ratioP1;P1;durP2;ratioP2;P2;SDS_P1;SDS_P2;PMS_P1;PMS_P2;Temp;Humidity;BMP_temperature;BMP_pressure;BME280_temperature;BME280_humidity;BME280_pressure;Samples;Min_cycle;Max_cycle;Signal;HPM_P1;HPM_P2
2023/07/15 00:01:24;;;;;;;0.03;0.03;;;;;;;19.12;51.57;97130.59;5061680;28;20051;-74
2023/07/15 00:03:53;;;;;;;0.05;0.05;;;;;;;19.14;51.32;97127.63;5061291;28;20073;-74
2023/07/15 00:06:23;;;;;;;0.13;0.13;;;;;;;19.16;51.42;97114.66;5063858;28;20059;-75
2023/07/15 00:08:51;;;;;;;0.10;0.10;;;;;;;19.24;51.04;97123.09;5062800;28;20048;-75
2023/07/15 00:11:22;;;;;;;0.50;0.50;;;;;;;19.15;51.52;97107.59;5063813;28;20552;-75
2023/07/15 00:13:52;;;;;;;0.03;0.03;;;;;;;18.99;52.21;97122.94;5063364;28;20056;-75
2023/07/15 00:16:20;;;;;;;0.10;0.10;;;;;;;18.73;52.95;97115.69;5062746;28;20068;-75
2023/07/15 00:18:48;;;;;;;0.10;0.10;;;;;;;18.77;52.20;97111.41;5063699;28;20063;-74
2023/07/15 00:21:20;;;;;;;0.10;0.10;;;;;;;18.69;52.86;97099.97;5063686;28;20041;-75
2023/07/15 00:23:53;;;;;;;0.10;0.10;;;;;;;18.47;53.37;97093.03;5063566;28;20086;-75
2023/07/15 00:26:21;;;;;;;0.03;0.03;;;;;;;18.55;53.45;97103.34;5062794;28;20556;-75
2023/07/15 00:28:50;;;;;;;0.08;0.08;;;;;;;18.65;53.10;97100.78;5063658;28;20033;-75
2023/07/15 00:31:18;;;;;;;0.10;0.10;;;;;;;18.83;52.49;97099.53;5060518;28;20052;-74
2023/07/15 00:33:48;;;;;;;0.20;0.20;;;;;;;18.51;52.91;97094.13;5060199;28;20452;-73
2023/07/15 00:36:17;;;;;;;0.10;0.10;;;;;;;18.43;53.04;97098.13;5049507;28;20131;-75
2023/07/15 00:38:45;;;;;;;0.03;0.03;;;;;;;18.34;52.67;97086.16;5048508;28;20037;-74
2023/07/15 00:41:18;;;;;;;0.20;0.20;;;;;;;18.26;52.97;97092.03;5050456;28;20056;-74
2023/07/15 00:43:55;;;;;;;0.00;0.00;;;;;;;18.41;52.39;97092.16;5050541;28;20091;-75
2023/07/15 00:46:31;;;;;;;0.20;0.20;;;;;;;18.31;52.66;97092.06;5048590;28;20467;-73
2023/07/15 00:49:02;;;;;;;0.13;0.13;;;;;;;18.55;52.46;97090.66;5046887;28;20052;-74
2023/07/15 00:51:34;;;;;;;0.00;0.00;;;;;;;18.48;52.63;97095.44;5048133;28;20084;-72
2023/07/15 00:54:02;;;;;;;0.15;0.15;;;;;;;18.42;52.86;97096.47;5048010;28;20098;-72
2023/07/15 00:56:31;;;;;;;0.00;0.00;;;;;;;18.13;53.22;97084.31;5047055;28;20055;-74
2023/07/15 00:58:59;;;;;;;0.10;0.10;;;;;;;18.11;53.34;97084.56;5067687;28;20112;-74
2023/07/15 01:01:29;;;;;;;0.10;0.10;;;;;;;18.14;53.13;97080.56;5060526;28;20125;-73
2023/07/15 01:03:57;;;;;;;0.03;0.03;;;;;;;18.15;53.15;97084.88;5065031;28;20079;-75
2023/07/15 01:06:25;;;;;;;0.03;0.03;;;;;;;18.23;53.14;97087.13;5048859;28;20574;-74
2023/07/15 01:08:53;;;;;;;0.10;0.10;;;;;;;18.21;53.71;97094.66;5066769;28;20045;-74
2023/07/15 01:11:21;;;;;;;0.10;0.10;;;;;;;18.31;53.03;97078.53;5049199;28;20076;-74
2023/07/15 01:13:49;;;;;;;0.10;0.10;;;;;;;18.27;53.26;97083.63;5065985;28;20053;-74
2023/07/15 01:16:16;;;;;;;0.20;0.20;;;;;;;18.32;52.71;97088.28;5065483;28;20044;-74
2023/07/15 01:18:46;;;;;;;0.03;0.03;;;;;;;18.34;52.86;97086.97;5065473;28;20053;-74
2023/07/15 01:21:14;;;;;;;0.03;0.03;;;;;;;18.30;52.84;97079.59;5065795;28;20501;-74
2023/07/15 01:23:43;;;;;;;0.10;0.10;;;;;;;18.22;52.74;97082.78;5048978;28;20072;-73
2023/07/15 01:26:11;;;;;;;0.20;0.20;;;;;;;18.23;52.70;97085.22;5066159;28;20036;-73
2023/07/15 01:28:39;;;;;;;0.05;0.05;;;;;;;18.20;52.75;97095.72;5061325;28;20044;-73
2023/07/15 01:31:07;;;;;;;0.13;0.13;;;;;;;18.30;52.50;97090.41;5068110;28;20111;-72
2023/07/15 01:33:35;;;;;;;0.03;0.03;;;;;;;18.29;52.38;97088.78;5048924;28;20029;-72
2023/07/15 01:36:04;;;;;;;0.10;0.10;;;;;;;18.21;52.94;97089.25;5047423;28;20438;-73
2023/07/15 01:38:32;;;;;;;0.13;0.13;;;;;;;18.39;52.42;97082.66;5066112;28;20041;-72
2023/07/15 01:41:02;;;;;;;0.03;0.03;;;;;;;18.35;52.44;97082.38;5064131;28;20445;-73
2023/07/15 01:43:32;;;;;;;0.10;0.10;;;;;;;18.35;52.48;97076.97;5065469;28;20036;-74
2023/07/15 01:46:00;;;;;;;0.10;0.10;;;;;;;18.33;52.56;97079.94;5047030;28;20063;-74
2023/07/15 01:48:28;;;;;;;0.20;0.20;;;;;;;18.19;53.00;97083.28;5065346;28;20048;-77
2023/07/15 01:50:56;;;;;;;0.13;0.13;;;;;;;18.35;52.62;97076.97;5046861;28;20045;-74
2023/07/15 01:53:23;;;;;;;0.03;0.03;;;;;;;18.19;52.95;97070.59;5044901;28;20058;-73
2023/07/15 01:55:52;;;;;;;0.10;0.10;;;;;;;18.38;52.54;97068.31;5046931;28;20062;-73
2023/07/15 01:58:21;;;;;;;0.03;0.03;;;;;;;18.56;52.14;97075.25;5044577;28;20079;-74
2023/07/15 02:00:49;;;;;;;0.10;0.10;;;;;;;18.33;52.86;97079.94;5046129;28;20048;-73
2023/07/15 02:03:17;;;;;;;0.13;0.13;;;;;;;18.30;53.10;97075.03;5045237;28;20127;-74
2023/07/15 02:05:48;;;;;;;0.10;0.10;;;;;;;18.18;53.69;97073.53;5045924;28;20047;-72
2023/07/15 02:08:16;;;;;;;0.03;0.03;;;;;;;18.16;53.71;97070.31;5064105;28;20112;-72
2023/07/15 02:10:43;;;;;;;0.10;0.10;;;;;;;18.15;53.65;97072.19;5063650;28;20044;-72
2023/07/15 02:13:11;;;;;;;0.10;0.10;;;;;;;18.11;53.87;97071.06;5045988;28;20049;-72
2023/07/15 02:15:40;;;;;;;0.00;0.00;;;;;;;18.20;53.67;97068.72;5064208;28;20047;-72
2023/07/15 02:18:08;;;;;;;0.17;0.17;;;;;;;17.88;54.68;97068.66;5046137;28;20067;-74
2023/07/15 02:20:37;;;;;;;0.03;0.03;;;;;;;17.83;54.30;97064.03;5063755;28;20045;-74
2023/07/15 02:23:05;;;;;;;0.13;0.13;;;;;;;17.94;53.82;97067.66;5046494;28;20041;-74
2023/07/15 02:25:33;;;;;;;0.13;0.13;;;;;;;17.99;54.01;97067.69;5062856;28;20460;-75
2023/07/15 02:28:02;;;;;;;0.10;0.10;;;;;;;17.75;54.34;97063.69;5062687;28;20041;-75
2023/07/15 02:30:31;;;;;;;0.10;0.10;;;;;;;17.80;54.35;97063.72;5045861;28;20060;-73
2023/07/15 02:33:00;;;;;;;0.10;0.10;;;;;;;17.88;53.75;97055.97;5063783;28;20584;-74
2023/07/15 02:35:28;;;;;;;0.03;0.03;;;;;;;17.92;53.92;97061.69;5056273;28;20532;-74
2023/07/15 02:37:56;;;;;;;0.10;0.10;;;;;;;17.92;53.86;97057.09;5044616;28;20044;-73
2023/07/15 02:40:25;;;;;;;0.00;0.00;;;;;;;18.04;53.91;97066.94;5061799;28;20056;-73
2023/07/15 02:42:53;;;;;;;0.10;0.10;;;;;;;17.88;54.29;97060.56;5046519;28;20098;-72
2023/07/15 02:45:21;;;;;;;0.10;0.10;;;;;;;18.04;53.88;97064.25;5046391;28;20040;-73
2023/07/15 02:47:49;;;;;;;0.10;0.10;;;;;;;17.92;53.96;97061.69;5046208;28;20067;-73
2023/07/15 02:50:18;;;;;;;0.10;0.10;;;;;;;18.01;53.18;97054.75;5046593;28;20041;-73
2023/07/15 02:52:46;;;;;;;0.10;0.10;;;;;;;17.90;53.72;97058.41;5044559;28;20052;-73
2023/07/15 02:55:13;;;;;;;0.10;0.10;;;;;;;18.02;53.33;97052.88;5062055;28;20106;-73
2023/07/15 02:57:41;;;;;;;0.03;0.03;;;;;;;18.06;53.30;97062.09;5060918;28;20040;-73
2023/07/15 03:00:12;;;;;;;0.10;0.10;;;;;;;18.00;53.38;97058.53;5046454;28;20060;-73
2023/07/15 03:02:44;;;;;;;0.10;0.10;;;;;;;18.07;53.13;97059.13;5061687;28;20552;-72
2023/07/15 03:05:12;;;;;;;0.13;0.13;;;;;;;18.11;53.27;97059.44;5064756;28;20059;-74
2023/07/15 03:07:44;;;;;;;0.10;0.10;;;;;;;18.14;53.40;97067.03;5066860;28;20055;-73
2023/07/15 03:10:12;;;;;;;0.25;0.25;;;;;;;18.10;53.32;97063.22;5049099;28;20401;-75
2023/07/15 03:12:42;;;;;;;0.10;0.10;;;;;;;18.20;53.22;97063.31;5047378;28;20584;-73
2023/07/15 03:15:10;;;;;;;0.10;0.10;;;;;;;18.16;52.94;97057.63;5062990;28;20155;-73
2023/07/15 03:17:38;;;;;;;0.03;0.03;;;;;;;18.24;53.06;97061.72;5062427;28;20033;-73
2023/07/15 03:20:14;;;;;;;0.00;0.00;;;;;;;18.26;52.98;97059.59;5046148;28;20037;-74
2023/07/15 03:22:43;;;;;;;0.13;0.13;;;;;;;18.20;53.28;97058.72;5061230;28;20083;-73
2023/07/15 03:25:11;;;;;;;0.03;0.03;;;;;;;18.20;53.35;97056.03;5045275;28;20048;-74
2023/07/15 03:27:39;;;;;;;0.10;0.10;;;;;;;18.22;53.07;97066.56;5045253;28;20033;-74
2023/07/15 03:30:08;;;;;;;0.15;0.15;;;;;;;18.15;53.25;97061.38;5047703;28;20048;-73
2023/07/15 03:32:36;;;;;;;0.13;0.13;;;;;;;18.21;53.30;97054.13;5063073;28;20086;-73
2023/07/15 03:35:05;;;;;;;0.10;0.10;;;;;;;18.28;52.94;97065.53;5062927;28;20450;-74
2023/07/15 03:37:33;;;;;;;0.03;0.03;;;;;;;18.24;53.16;97070.66;5062649;28;20036;-73
2023/07/15 03:40:08;;;;;;;0.10;0.10;;;;;;;18.25;53.25;97069.59;5045206;28;20041;-73
2023/07/15 03:42:35;;;;;;;0.10;0.10;;;;;;;18.15;53.67;97072.19;5042190;28;20041;-73
2023/07/15 03:45:04;;;;;;;0.13;0.13;;;;;;;18.31;53.13;97065.03;5062263;28;20051;-73
2023/07/15 03:47:33;;;;;;;0.03;0.03;;;;;;;18.32;53.17;97083.69;5063677;28;20043;-73
2023/07/15 03:50:01;;;;;;;0.20;0.20;;;;;;;18.33;53.42;97068.28;5062984;28;20112;-73
2023/07/15 03:52:29;;;;;;;0.10;0.10;;;;;;;18.44;53.26;97078.13;5062992;28;20056;-73
2023/07/15 03:54:57;;;;;;;0.10;0.10;;;;;;;18.19;53.99;97075.19;5063362;28;20048;-75
2023/07/15 03:57:26;;;;;;;0.10;0.10;;;;;;;18.30;53.52;97066.91;5062612;28;20063;-73
2023/07/15 03:59:54;;;;;;;0.15;0.15;;;;;;;18.27;53.73;97072.81;5060432;28;20075;-75
2023/07/15 04:02:22;;;;;;;0.03;0.03;;;;;;;18.41;53.48;97073.22;5061760;28;20036;-75
2023/07/15 04:04:49;;;;;;;0.05;0.05;;;;;;;18.43;53.43;97072.97;5064276;28;20042;-75
2023/07/15 04:07:17;;;;;;;0.10;0.10;;;;;;;18.38;53.50;97075.63;5062109;28;20045;-75
2023/07/15 04:09:45;;;;;;;0.30;0.20;;;;;;;18.46;53.63;97073.28;5044031;28;20448;-75
2023/07/15 04:12:13;;;;;;;0.13;0.13;;;;;;;18.41;53.92;97078.63;5045382;28;20068;-74
2023/07/15 04:14:42;;;;;;;0.13;0.13;;;;;;;18.45;53.68;97071.66;5073895;28;20108;-74
2023/07/15 04:17:09;;;;;;;0.03;0.03;;;;;;;18.62;53.36;97075.06;5068657;28;20501;-74
2023/07/15 04:19:38;;;;;;;0.13;0.13;;;;;;;18.61;53.29;97078.00;5061942;28;20047;-74
2023/07/15 04:22:06;;;;;;;0.05;0.05;;;;;;;18.62;53.47;97080.47;5062485;28;20405;-73
2023/07/15 04:24:34;;;;;;;0.10;0.10;;;;;;;18.77;53.20;97076.25;5062345;28;20051;-73
2023/07/15 04:27:02;;;;;;;0.00;0.00;;;;;;;18.78;53.04;97075.19;5062727;28;20044;-73
2023/07/15 04:29:30;;;;;;;0.10;0.10;;;;;;;18.89;53.00;97074.19;5095214;23;20045;-71
2023/07/15 04:31:59;;;;;;;0.10;0.10;;;;;;;18.99;52.83;97071.53;5083333;28;20036;-71
2023/07/15 04:34:27;;;;;;;0.13;0.13;;;;;;;19.06;52.71;97072.94;5081166;28;20563;-75
2023/07/15 04:36:55;;;;;;;0.10;0.10;;;;;;;19.12;52.83;97073.75;5082133;28;20500;-71
2023/07/15 04:39:22;;;;;;;0.10;0.10;;;;;;;19.21;52.60;97074.91;5082833;28;20040;-72
2023/07/15 04:41:50;;;;;;;0.10;0.10;;;;;;;19.26;52.55;97072.22;5083582;28;20059;-71
2023/07/15 04:44:18;;;;;;;0.03;0.03;;;;;;;19.29;52.57;97077.13;5080189;28;20048;-71
2023/07/15 04:46:45;;;;;;;0.03;0.03;;;;;;;19.33;52.70;97077.41;5079207;28;20127;-70
2023/07/15 04:49:15;;;;;;;0.10;0.10;;;;;;;19.40;52.37;97070.69;5083243;28;20036;-71
2023/07/15 04:51:43;;;;;;;0.13;0.13;;;;;;;19.55;52.10;97069.94;5083321;28;20076;-70
2023/07/15 04:54:10;;;;;;;0.03;0.03;;;;;;;19.59;52.32;97071.06;5082157;28;20534;-71
2023/07/15 04:56:38;;;;;;;0.08;0.08;;;;;;;19.69;52.02;97075.69;5083014;28;20048;-72
2023/07/15 04:59:07;;;;;;;0.03;0.03;;;;;;;19.75;51.86;97078.16;5082149;28;20040;-70
2023/07/15 05:01:35;;;;;;;0.03;0.03;;;;;;;19.88;51.75;97074.13;5082421;28;21283;-71
2023/07/15 05:04:02;;;;;;;0.30;0.30;;;;;;;19.98;51.74;97081.47;5081824;28;20411;-71
2023/07/15 05:06:32;;;;;;;0.10;0.10;;;;;;;20.00;51.64;97077.44;5082631;28;20056;-72
2023/07/15 05:09:00;;;;;;;0.03;0.03;;;;;;;20.06;51.40;97078.22;5081701;28;20139;-69
2023/07/15 05:11:28;;;;;;;0.00;0.00;;;;;;;20.16;51.43;97080.97;5082827;28;20501;-72
2023/07/15 05:13:56;;;;;;;0.00;0.00;;;;;;;20.26;51.30;97080.16;5082069;28;20068;-71
2023/07/15 05:16:24;;;;;;;0.05;0.05;;;;;;;20.32;51.12;97076.41;5082900;28;20044;-71
2023/07/15 05:18:51;;;;;;;0.10;0.10;;;;;;;20.40;51.05;97084.03;5083093;28;20127;-72
2023/07/15 05:21:19;;;;;;;0.03;0.03;;;;;;;20.44;51.10;97083.22;5083899;28;20040;-72
2023/07/15 05:23:48;;;;;;;0.13;0.13;;;;;;;20.51;51.12;97085.66;5087010;28;20039;-72
2023/07/15 05:26:16;;;;;;;0.10;0.10;;;;;;;20.61;50.66;97088.38;5087620;28;20071;-72
2023/07/15 05:28:44;;;;;;;0.20;0.20;;;;;;;20.69;50.55;97089.72;5085862;28;20412;-71
2023/07/15 05:31:11;;;;;;;0.03;0.03;;;;;;;20.75;50.73;97075.91;5087069;28;20102;-72
2023/07/15 05:33:44;;;;;;;0.00;0.00;;;;;;;20.83;50.38;97085.38;5084169;28;20126;-72
2023/07/15 05:36:12;;;;;;;0.10;0.10;;;;;;;20.90;50.12;97085.91;5086638;28;20093;-72
2023/07/15 05:38:42;;;;;;;0.00;0.00;;;;;;;20.98;50.10;97085.34;5084435;28;20063;-72
2023/07/15 05:41:12;;;;;;;0.10;0.10;;;;;;;21.07;50.03;97077.50;5085281;28;20142;-72
2023/07/15 05:43:40;;;;;;;0.17;0.17;;;;;;;21.17;49.88;97072.84;5084506;28;20072;-72
2023/07/15 05:46:08;;;;;;;0.03;0.03;;;;;;;21.25;49.91;97076.94;5084053;28;20040;-72
2023/07/15 05:48:35;;;;;;;0.10;0.08;;;;;;;21.35;49.79;97073.38;5085080;28;20044;-71
2023/07/15 05:51:03;;;;;;;0.13;0.13;;;;;;;21.41;49.68;97078.50;5085394;28;20040;-72
2023/07/15 05:53:31;;;;;;;0.10;0.10;;;;;;;21.53;49.19;97087.16;5086382;28;20056;-72
2023/07/15 05:55:58;;;;;;;0.10;0.10;;;;;;;21.62;49.11;97079.25;5085332;28;20405;-72
2023/07/15 05:58:28;;;;;;;0.10;0.10;;;;;;;21.74;49.13;97087.06;5082617;28;20036;-73
2023/07/15 06:00:55;;;;;;;0.00;0.00;;;;;;;21.84;48.69;97081.59;5086569;28;20143;-72
2023/07/15 06:03:23;;;;;;;0.10;0.10;;;;;;;21.95;48.49;97085.88;5087052;28;20041;-72
2023/07/15 06:05:51;;;;;;;0.03;0.03;;;;;;;22.03;48.59;97087.22;5096046;28;20032;-72
2023/07/15 06:08:18;;;;;;;0.00;0.00;;;;;;;22.15;48.38;97091.25;5092551;28;20036;-73
2023/07/15 06:10:46;;;;;;;0.10;0.10;;;;;;;22.26;48.06;97081.13;5112775;28;20046;-72
2023/07/15 06:13:14;;;;;;;0.08;0.08;;;;;;;22.37;47.74;97082.66;5090859;28;20066;-73
2023/07/15 06:15:43;;;;;;;0.00;0.00;;;;;;;22.46;47.75;97069.28;5087013;28;20042;-74
2023/07/15 06:18:10;;;;;;;0.05;0.05;;;;;;;22.54;47.66;97082.25;5084158;28;20032;-73
2023/07/15 06:20:40;;;;;;;0.00;0.00;;;;;;;22.62;47.54;97085.22;5083639;28;20064;-74
2023/07/15 06:23:08;;;;;;;0.00;0.00;;;;;;;22.70;47.38;97081.06;5082619;28;20115;-74
2023/07/15 06:25:38;;;;;;;0.00;0.00;;;;;;;22.75;47.14;97082.91;5085750;28;20098;-73
2023/07/15 06:28:06;;;;;;;0.10;0.10;;;;;;;22.79;47.60;97084.00;5083634;28;20058;-74
2023/07/15 06:30:34;;;;;;;0.03;0.03;;;;;;;22.86;47.20;97096.19;5081236;28;20048;-72
2023/07/15 06:33:03;;;;;;;0.00;0.00;;;;;;;22.92;47.23;97086.91;5082390;28;20408;-72
2023/07/15 06:35:30;;;;;;;0.00;0.00;;;;;;;23.02;46.83;97089.53;5083220;28;20052;-73
2023/07/15 06:37:58;;;;;;;0.03;0.03;;;;;;;23.12;46.92;97087.78;5081885;28;20040;-73
2023/07/15 06:40:26;;;;;;;0.03;0.03;;;;;;;23.19;46.50;97078.19;5083193;28;20048;-72
2023/07/15 06:42:53;;;;;;;0.10;0.10;;;;;;;23.27;46.48;97072.09;5082015;28;20056;-73
2023/07/15 06:45:21;;;;;;;0.10;0.10;;;;;;;23.39;46.58;97066.25;5085582;28;20044;-72
2023/07/15 06:47:49;;;;;;;0.03;0.03;;;;;;;23.46;46.56;97066.75;5083698;28;20087;-72
2023/07/15 06:50:18;;;;;;;0.00;0.00;;;;;;;23.58;45.85;97066.34;5084535;28;20045;-72
2023/07/15 06:52:46;;;;;;;0.00;0.00;;;;;;;23.73;46.15;97057.97;5084003;28;20040;-72
2023/07/15 06:55:14;;;;;;;0.03;0.03;;;;;;;23.82;45.83;97055.41;5082875;28;20559;-73
2023/07/15 06:57:42;;;;;;;0.00;0.00;;;;;;;23.90;45.56;97054.75;5083501;28;20122;-72
2023/07/15 07:00:10;;;;;;;0.10;0.10;;;;;;;24.20;45.24;97048.88;5084050;28;20063;-72
2023/07/15 07:02:38;;;;;;;0.03;0.03;;;;;;;24.36;44.89;97053.03;5083830;28;20071;-73
2023/07/15 07:05:06;;;;;;;0.00;0.00;;;;;;;24.44;44.94;97048.81;5084086;28;20589;-72
2023/07/15 07:07:35;;;;;;;0.00;0.00;;;;;;;24.65;44.40;97043.84;5082937;28;20044;-72
2023/07/15 07:10:03;;;;;;;0.00;0.00;;;;;;;24.90;43.53;97035.22;5084200;28;20144;-72
2023/07/15 07:12:31;;;;;;;0.00;0.00;;;;;;;25.12;43.21;97040.84;5081953;28;20055;-73
2023/07/15 07:14:58;;;;;;;0.10;0.10;;;;;;;25.23;43.26;97035.97;5082570;28;20438;-72
2023/07/15 07:17:26;;;;;;;0.10;0.10;;;;;;;25.43;42.79;97038.34;5082536;28;20094;-73
2023/07/15 07:19:54;;;;;;;0.03;0.03;;;;;;;25.56;42.24;97034.78;5081781;28;20097;-73
2023/07/15 07:22:22;;;;;;;0.00;0.00;;;;;;;25.79;41.87;97038.44;5082985;28;20519;-72
2023/07/15 07:24:52;;;;;;;0.00;0.00;;;;;;;25.95;41.20;97033.47;5083844;28;20036;-73
2023/07/15 07:27:19;;;;;;;0.10;0.10;;;;;;;26.08;40.92;97032.59;5084022;28;20415;-72
2023/07/15 07:29:47;;;;;;;0.10;0.10;;;;;;;26.20;41.31;97026.59;5087118;28;20374;-73
2023/07/15 07:32:15;;;;;;;0.10;0.10;;;;;;;26.40;40.98;97017.91;5081782;28;20045;-72
2023/07/15 07:34:42;;;;;;;0.00;0.00;;;;;;;26.58;40.48;97014.19;5082241;28;20075;-73
2023/07/15 07:37:10;;;;;;;0.00;0.00;;;;;;;26.70;40.06;97016.34;5082034;28;20042;-73
2023/07/15 07:39:37;;;;;;;0.00;0.00;;;;;;;26.76;40.05;97017.03;5083655;28;20046;-73
2023/07/15 07:42:08;;;;;;;0.30;0.30;;;;;;;26.97;39.55;97018.16;5082956;28;20059;-73
2023/07/15 07:44:36;;;;;;;0.00;0.00;;;;;;;27.11;38.96;96999.69;5082641;28;20127;-73
2023/07/15 07:47:04;;;;;;;0.08;0.08;;;;;;;27.28;38.94;96998.97;5083087;28;20039;-73
2023/07/15 07:49:32;;;;;;;0.00;0.00;;;;;;;27.42;38.83;97005.94;5079568;28;20052;-73
2023/07/15 07:52:03;;;;;;;0.00;0.00;;;;;;;27.57;38.57;97012.16;5080674;28;20079;-73
2023/07/15 07:54:30;;;;;;;0.00;0.00;;;;;;;27.72;38.47;97007.00;5077902;28;20056;-72
2023/07/15 07:56:57;;;;;;;0.00;0.00;;;;;;;27.97;37.90;97002.69;5082183;28;20466;-73
2023/07/15 07:59:26;;;;;;;0.03;0.03;;;;;;;28.24;37.43;96998.84;5083190;28;20032;-72
2023/07/15 08:01:54;;;;;;;0.00;0.00;;;;;;;28.36;37.30;97007.25;5082016;28;20067;-73
2023/07/15 08:04:21;;;;;;;0.00;0.00;;;;;;;28.53;36.61;96997.41;5082059;28;20043;-73
2023/07/15 08:06:49;;;;;;;0.00;0.00;;;;;;;28.69;36.33;96996.56;5083855;28;20494;-74
2023/07/15 08:09:17;;;;;;;0.00;0.00;;;;;;;28.80;36.19;97006.09;5082483;28;20055;-73
2023/07/15 08:11:44;;;;;;;0.00;0.00;;;;;;;28.98;36.01;97006.03;5083160;28;20155;-73
2023/07/15 08:14:12;;;;;;;0.05;0.05;;;;;;;29.16;35.24;96991.13;5083021;28;20032;-73
2023/07/15 08:16:41;;;;;;;0.10;0.10;;;;;;;29.33;35.11;96999.28;5081092;28;20516;-74
2023/07/15 08:19:09;;;;;;;0.00;0.00;;;;;;;29.54;34.92;96997.44;5082522;28;20064;-74
2023/07/15 08:21:37;;;;;;;0.00;0.00;;;;;;;29.61;34.62;97002.41;5082767;28;20123;-73
2023/07/15 08:24:05;;;;;;;0.00;0.00;;;;;;;29.76;34.52;97006.53;5082151;28;20047;-73
2023/07/15 08:26:32;;;;;;;0.00;0.00;;;;;;;29.79;33.97;96997.63;5082725;28;20044;-73
2023/07/15 08:29:02;;;;;;;0.00;0.00;;;;;;;29.88;32.36;96999.19;5081831;28;20040;-73
2023/07/15 08:31:30;;;;;;;0.00;0.00;;;;;;;29.95;32.07;97001.41;5082304;28;20036;-73
2023/07/15 08:33:59;;;;;;;0.00;0.00;;;;;;;30.21;32.02;97004.78;5082955;28;20066;-74
2023/07/15 08:36:27;;;;;;;0.08;0.08;;;;;;;30.41;31.47;97010.63;5081842;28;20416;-73
2023/07/15 08:38:55;;;;;;;0.00;0.00;;;;;;;30.35;31.22;96993.50;5083155;28;20040;-74
2023/07/15 08:41:24;;;;;;;0.00;0.00;;;;;;;30.42;31.05;96998.47;5082731;28;20041;-74
2023/07/15 08:43:52;;;;;;;0.00;0.00;;;;;;;30.72;31.18;97000.00;5081414;28;20039;-74
2023/07/15 08:46:26;;;;;;;0.00;0.00;;;;;;;30.95;30.74;96992.09;5082600;28;20097;-73
2023/07/15 08:48:54;;;;;;;0.00;0.00;;;;;;;31.06;30.23;96993.28;5080695;28;20052;-73
2023/07/15 08:51:26;;;;;;;0.10;0.10;;;;;;;31.36;29.62;96985.63;5082173;28;20416;-73
2023/07/15 08:53:54;;;;;;;0.00;0.00;;;;;;;31.38;29.46;96975.06;5080045;28;20054;-74
2023/07/15 08:56:23;;;;;;;0.00;0.00;;;;;;;31.33;29.51;96987.16;5083735;28;20438;-73
2023/07/15 08:58:53;;;;;;;0.00;0.00;;;;;;;31.42;29.63;96981.53;5083224;28;20143;-73
2023/07/15 09:01:21;;;;;;;0.05;0.00;;;;;;;31.45;29.39;96977.28;5087326;28;20047;-73
2023/07/15 09:03:49;;;;;;;0.10;0.10;;;;;;;31.56;29.10;96984.72;5086192;28;20404;-74
2023/07/15 09:06:17;;;;;;;0.00;0.00;;;;;;;31.73;28.52;96984.53;5086405;28;20028;-73
2023/07/15 09:08:50;;;;;;;0.00;0.00;;;;;;;31.86;28.43;96998.31;5086045;28;20135;-75
2023/07/15 09:11:18;;;;;;;0.10;0.10;;;;;;;31.99;28.06;97000.69;5087066;28;20669;-74
2023/07/15 09:13:46;;;;;;;0.13;0.13;;;;;;;32.03;27.84;97006.34;5084982;28;20534;-74
2023/07/15 09:16:14;;;;;;;0.00;0.00;;;;;;;32.16;27.76;97010.69;5086766;28;20416;-74
2023/07/15 09:18:43;;;;;;;0.10;0.00;;;;;;;32.37;27.71;97008.59;5085026;28;20070;-73
2023/07/15 09:21:12;;;;;;;0.00;0.00;;;;;;;32.30;26.48;97002.84;5086733;28;20123;-73
2023/07/15 09:23:42;;;;;;;0.00;0.00;;;;;;;31.97;27.10;97018.78;5087305;28;20102;-74
2023/07/15 09:26:12;;;;;;;0.05;0.05;;;;;;;31.94;27.23;97016.72;5086670;28;20040;-74
2023/07/15 09:28:41;;;;;;;0.00;0.00;;;;;;;31.61;27.77;97022.34;5086958;28;20052;-74
2023/07/15 09:31:09;;;;;;;0.00;0.00;;;;;;;32.06;27.62;97022.22;5086873;28;20067;-74
2023/07/15 09:33:39;;;;;;;0.00;0.00;;;;;;;32.26;27.64;97026.81;5084941;28;20040;-73
2023/07/15 09:36:07;;;;;;;0.00;0.00;;;;;;;32.29;27.86;97030.84;5086275;28;20496;-74
2023/07/15 09:38:39;;;;;;;0.00;0.00;;;;;;;32.55;27.66;97011.84;5085990;28;20048;-73
2023/07/15 09:41:08;;;;;;;0.00;0.00;;;;;;;32.94;27.34;97015.72;5087731;28;20044;-73
2023/07/15 09:43:48;;;;;;;0.00;0.00;;;;;;;32.94;26.72;97018.50;5084841;28;20562;-74
2023/07/15 09:46:17;;;;;;;0.10;0.10;;;;;;;32.98;26.52;97011.09;5086931;28;20392;-74
2023/07/15 09:48:45;;;;;;;0.00;0.00;;;;;;;33.07;26.57;97008.97;5087387;28;20055;-74
2023/07/15 09:51:14;;;;;;;0.00;0.00;;;;;;;33.01;26.99;96999.34;5094672;28;20552;-73
2023/07/15 09:53:45;;;;;;;0.00;0.00;;;;;;;33.05;27.48;97000.22;5092306;28;20048;-73
2023/07/15 09:56:13;;;;;;;0.00;0.00;;;;;;;33.11;26.78;97007.13;5091806;28;20050;-73
2023/07/15 09:58:44;;;;;;;0.00;0.00;;;;;;;33.16;26.34;97014.31;5089447;28;20140;-73
2023/07/15 10:01:16;;;;;;;0.00;0.00;;;;;;;33.28;26.05;96994.09;5089608;28;20049;-71
2023/07/15 10:03:49;;;;;;;0.00;0.00;;;;;;;32.87;26.81;97000.91;5090326;28;20044;-74
2023/07/15 10:06:16;;;;;;;0.00;0.00;;;;;;;33.23;25.51;97008.19;5091468;28;20539;-73
2023/07/15 10:08:44;;;;;;;0.00;0.00;;;;;;;33.52;25.42;96989.19;5088239;28;20127;-74
2023/07/15 10:11:13;;;;;;;0.00;0.00;;;;;;;33.69;24.61;96985.22;5088399;28;20047;-74
2023/07/15 10:13:42;;;;;;;0.00;0.00;;;;;;;33.88;24.52;96982.53;5087278;28;20090;-73
2023/07/15 10:16:09;;;;;;;0.00;0.00;;;;;;;34.06;24.56;96982.13;5089491;28;20104;-74
2023/07/15 10:18:38;;;;;;;0.08;0.08;;;;;;;34.06;23.46;96980.16;5088647;28;20047;-74
2023/07/15 10:21:09;;;;;;;0.00;0.00;;;;;;;34.08;22.88;96982.56;5088584;28;20062;-74
2023/07/15 10:23:37;;;;;;;0.00;0.00;;;;;;;33.80;22.50;96983.53;5082580;28;20087;-72
2023/07/15 10:26:06;;;;;;;0.00;0.00;;;;;;;33.59;23.35;96990.50;5083957;28;20048;-73
2023/07/15 10:28:34;;;;;;;0.00;0.00;;;;;;;33.89;24.14;96981.38;5085120;28;20068;-77
2023/07/15 10:31:11;;;;;;;0.08;0.08;;;;;;;33.84;24.14;96976.13;5091100;28;20048;-74
2023/07/15 10:33:54;;;;;;;0.00;0.00;;;;;;;34.30;22.75;96964.44;5082176;28;20052;-77
2023/07/15 10:36:36;;;;;;;0.00;0.00;;;;;;;34.53;21.53;96968.91;5085081;28;20122;-74
2023/07/15 10:39:12;;;;;;;0.00;0.00;;;;;;;34.54;21.07;96978.03;5091409;28;20032;-77
2023/07/15 10:41:41;;;;;;;0.00;0.00;;;;;;;34.78;21.57;96968.63;5087117;28;20147;-77
2023/07/15 10:44:16;;;;;;;0.00;0.00;;;;;;;34.71;21.93;96965.66;5087716;28;20119;-77
2023/07/15 10:46:45;;;;;;;0.00;0.00;;;;;;;34.62;22.11;96977.00;5086566;28;20040;-76
2023/07/15 10:49:14;;;;;;;0.00;0.00;;;;;;;34.81;21.98;96977.00;5087241;28;20047;-76
2023/07/15 10:51:43;;;;;;;0.00;0.00;;;;;;;34.75;21.63;96961.84;5083997;28;20052;-76
2023/07/15 10:54:10;;;;;;;0.00;0.00;;;;;;;34.57;21.42;96957.91;5086444;28;20116;-76
2023/07/15 10:56:38;;;;;;;0.10;0.10;;;;;;;34.82;19.61;96969.47;5085817;28;20044;-76
2023/07/15 10:59:06;;;;;;;0.00;0.00;;;;;;;34.53;18.17;96968.09;5084902;28;20047;-77
2023/07/15 11:01:33;;;;;;;0.00;0.00;;;;;;;34.41;17.24;96960.72;5085484;28;20045;-75
2023/07/15 11:04:06;;;;;;;0.00;0.00;;;;;;;34.35;17.73;96953.88;5085380;28;20032;-75
2023/07/15 11:06:35;;;;;;;0.00;0.00;;;;;;;34.33;17.26;96963.72;5088155;28;20062;-76
2023/07/15 11:09:22;;;;;;;0.00;0.00;;;;;;;34.29;17.44;96954.53;5087430;28;20076;-77
2023/07/15 11:11:50;;;;;;;0.00;0.00;;;;;;;34.71;16.86;96960.13;5083423;28;20044;-75
2023/07/15 11:14:22;;;;;;;0.00;0.00;;;;;;;34.76;15.91;96959.88;5086427;28;20424;-75
2023/07/15 11:16:54;;;;;;;0.00;0.00;;;;;;;34.81;15.77;96952.03;5090314;28;20071;-77
2023/07/15 11:19:23;;;;;;;0.00;0.00;;;;;;;35.06;15.80;96946.13;5095221;28;20040;-76
2023/07/15 11:21:53;;;;;;;0.00;0.00;;;;;;;35.37;16.04;96939.53;5098904;28;20431;-78
2023/07/15 11:24:22;;;;;;;0.00;0.00;;;;;;;35.58;15.85;96934.31;5081386;28;20051;-77
2023/07/15 11:26:50;;;;;;;0.00;0.00;;;;;;;35.50;16.01;96932.59;5098044;28;20072;-77
2023/07/15 11:29:19;;;;;;;0.00;0.00;;;;;;;35.66;15.70;96939.59;5092023;28;20040;-76
2023/07/15 11:31:48;;;;;;;0.00;0.00;;;;;;;35.54;16.27;96930.66;5087388;28;20071;-75
2023/07/15 11:34:17;;;;;;;0.00;0.00;;;;;;;35.01;16.09;96927.78;5087397;28;20036;-75
2023/07/15 11:36:45;;;;;;;0.00;0.00;;;;;;;35.30;16.03;96932.69;5088350;28;20049;-76
2023/07/15 11:39:15;;;;;;;0.00;0.00;;;;;;;35.17;16.51;96925.72;5083915;28;20079;-75
2023/07/15 11:41:43;;;;;;;0.00;0.00;;;;;;;35.51;16.46;96937.00;5083399;28;20054;-75